createdAt,value
2023-03-05T00:01:33.364Z,1.18
2023-03-05T00:04:05.224Z,1.15
2023-03-05T00:06:34.306Z,1.10
2023-03-05T00:09:03.556Z,1.10
2023-03-05T00:11:33.773Z,1.04
2023-03-05T00:14:04.714Z,0.96
2023-03-05T00:16:32.978Z,0.98
2023-03-05T00:19:02.873Z,0.93
2023-03-05T00:21:33.504Z,0.87
2023-03-05T00:24:02.910Z,0.84
2023-03-05T00:26:34.574Z,0.80
2023-03-05T00:29:02.993Z,0.79
2023-03-05T00:31:32.256Z,0.84
2023-03-05T00:34:03.654Z,0.73
2023-03-05T00:36:32.614Z,0.77
2023-03-05T00:39:01.551Z,0.71
2023-03-05T00:41:29.749Z,0.56
2023-03-05T00:43:58.044Z,0.54
2023-03-05T00:46:27.666Z,0.53
2023-03-05T00:48:56.907Z,0.50
2023-03-05T00:51:26.730Z,0.54
2023-03-05T00:53:54.964Z,0.45
2023-03-05T00:56:23.335Z,0.49
2023-03-05T00:58:53.347Z,0.44
2023-03-05T01:01:21.621Z,0.36
2023-03-05T01:03:49.836Z,0.36
2023-03-05T01:06:18.508Z,0.35
2023-03-05T01:08:48.151Z,0.31
2023-03-05T01:11:16.363Z,0.21
2023-03-05T01:13:44.578Z,0.08
2023-03-05T01:16:12.867Z,0.10
2023-03-05T01:18:41.529Z,0.12
2023-03-05T01:21:10.143Z,0.14
2023-03-05T01:23:38.501Z,0.14
2023-03-05T01:26:08.670Z,0.18
2023-03-05T01:28:38.316Z,0.13
2023-03-05T01:31:09.870Z,0.16
2023-03-05T01:33:39.064Z,0.12
2023-03-05T01:36:14.979Z,0.06
2023-03-05T01:38:43.872Z,0.03
2023-03-05T01:41:15.038Z,-0.03
2023-03-05T01:43:44.284Z,-0.07
2023-03-05T01:46:35.809Z,-0.02
2023-03-05T01:49:09.891Z,-0.07
2023-03-05T01:51:42.216Z,-0.06
2023-03-05T01:54:13.046Z,-0.08
2023-03-05T01:56:44.006Z,-0.10
2023-03-05T01:59:13.307Z,-0.17
2023-03-05T02:01:46.200Z,-0.16
2023-03-05T02:04:17.839Z,-0.10
2023-03-05T02:06:46.706Z,-0.14
2023-03-05T02:09:15.255Z,-0.06
2023-03-05T02:11:45.064Z,0.03
2023-03-05T02:14:13.298Z,0.01
2023-03-05T02:16:42.493Z,-0.01
2023-03-05T02:19:13.565Z,0.00
2023-03-05T02:21:45.793Z,-0.04
2023-03-05T02:24:15.130Z,-0.13
2023-03-05T02:26:45.031Z,-0.19
2023-03-05T02:29:18.664Z,-0.19
2023-03-05T02:31:47.254Z,-0.19
2023-03-05T02:34:15.897Z,-0.24
2023-03-05T02:36:45.399Z,-0.28
2023-03-05T02:39:14.093Z,-0.33
2023-03-05T02:41:42.202Z,-0.28
2023-03-05T02:44:10.333Z,-0.36
2023-03-05T02:46:38.531Z,-0.41
2023-03-05T02:49:06.622Z,-0.47
2023-03-05T02:51:34.762Z,-0.41
2023-03-05T02:54:04.494Z,-0.48
2023-03-05T02:56:32.928Z,-0.56
2023-03-05T02:59:02.615Z,-0.63
2023-03-05T03:01:30.853Z,-0.59
2023-03-05T03:03:59.353Z,-0.63
2023-03-05T03:06:27.627Z,-0.57
2023-03-05T03:08:55.794Z,-0.57
2023-03-05T03:11:25.313Z,-0.54
2023-03-05T03:13:53.558Z,-0.63
2023-03-05T03:16:22.060Z,-0.68
2023-03-05T03:18:50.336Z,-0.76
2023-03-05T03:21:20.116Z,-0.67
2023-03-05T03:23:48.329Z,-0.75
2023-03-05T03:26:16.798Z,-0.83
2023-03-05T03:28:46.924Z,-0.78
2023-03-05T03:31:15.203Z,-0.81
2023-03-05T03:33:43.330Z,-0.80
2023-03-05T03:36:11.898Z,-0.81
2023-03-05T03:38:40.066Z,-0.96
2023-03-05T03:41:08.963Z,-1.00
2023-03-05T03:43:37.171Z,-0.91
2023-03-05T03:46:08.544Z,-0.95
2023-03-05T03:48:37.135Z,-0.97
2023-03-05T03:51:07.222Z,-1.03
2023-03-05T03:53:35.913Z,-0.97
2023-03-05T03:56:04.584Z,-1.00
2023-03-05T03:58:32.747Z,-1.04
2023-03-05T04:01:00.952Z,-1.05
2023-03-05T04:03:30.463Z,-1.04
2023-03-05T04:05:58.796Z,-1.09
2023-03-05T04:08:26.935Z,-1.11
2023-03-05T04:10:55.031Z,-1.11
2023-03-05T04:13:23.143Z,-1.08
2023-03-05T04:15:51.370Z,-1.10
2023-03-05T04:18:19.520Z,-1.14
2023-03-05T04:20:49.335Z,-1.19
2023-03-05T04:23:17.994Z,-1.09
2023-03-05T04:25:46.118Z,-1.11
2023-03-05T04:28:14.279Z,-1.21
2023-03-05T04:30:42.502Z,-1.15
2023-03-05T04:33:10.621Z,-1.22
2023-03-05T04:35:38.737Z,-1.26
2023-03-05T04:38:08.685Z,-1.31
2023-03-05T04:40:36.825Z,-1.29
2023-03-05T04:43:05.224Z,-1.37
2023-03-05T04:45:33.486Z,-1.40
2023-03-05T04:48:02.041Z,-1.38
2023-03-05T04:50:30.134Z,-1.42
2023-03-05T04:52:58.320Z,-1.66
2023-03-05T04:55:28.792Z,-1.57
2023-03-05T04:57:56.893Z,-1.50
2023-03-05T05:00:25.428Z,-1.60
2023-03-05T05:02:54.286Z,-1.57
2023-03-05T05:05:24.914Z,-1.52
2023-03-05T05:07:56.329Z,-1.52
2023-03-05T05:10:25.393Z,-1.61
2023-03-05T05:12:55.225Z,-1.73
2023-03-05T05:15:23.392Z,-1.67
2023-03-05T05:17:52.631Z,-1.75
2023-03-05T05:20:20.886Z,-1.77
2023-03-05T05:22:49.016Z,-1.82
2023-03-05T05:25:17.231Z,-1.83
2023-03-05T05:27:45.455Z,-1.72
2023-03-05T05:30:15.428Z,-1.65
2023-03-05T05:32:43.597Z,-1.65
2023-03-05T05:35:12.383Z,-1.64
2023-03-05T05:37:40.486Z,-1.55
2023-03-05T05:40:10.139Z,-1.57
2023-03-05T05:42:38.578Z,-1.54
2023-03-05T05:45:07.858Z,-1.46
2023-03-05T05:47:37.345Z,-1.43
2023-03-05T05:50:07.893Z,-1.42
2023-03-05T05:52:36.009Z,-1.39
2023-03-05T05:55:04.537Z,-1.27
2023-03-05T05:57:32.671Z,-1.18
2023-03-05T06:00:00.831Z,-1.12
2023-03-05T06:02:28.940Z,-1.02
2023-03-05T06:04:58.486Z,-0.94
2023-03-05T06:07:26.601Z,-0.93
2023-03-05T06:09:54.705Z,-0.86
2023-03-05T06:12:22.820Z,-0.76
2023-03-05T06:14:50.928Z,-0.65
2023-03-05T06:17:29.837Z,-0.48
2023-03-05T06:19:59.694Z,-0.37
2023-03-05T06:22:28.271Z,-0.31
2023-03-05T06:24:56.529Z,-0.18
2023-03-05T06:27:24.649Z,-0.02
2023-03-05T06:29:54.418Z,-0.11
2023-03-05T06:32:22.609Z,0.05
2023-03-05T06:34:50.827Z,0.08
2023-03-05T06:37:20.423Z,0.27
2023-03-05T06:39:48.780Z,0.44
2023-03-05T06:42:19.396Z,0.64
2023-03-05T06:44:48.434Z,0.83
2023-03-05T06:47:16.751Z,0.99
2023-03-05T06:49:44.963Z,1.17
2023-03-05T06:52:13.161Z,1.33
2023-03-05T06:54:42.846Z,1.60
2023-03-05T06:57:11.663Z,1.88
2023-03-05T06:59:39.886Z,2.12
2023-03-05T07:02:10.179Z,2.49
2023-03-05T07:04:38.432Z,2.89
2023-03-05T07:07:06.648Z,3.11
2023-03-05T07:09:34.769Z,3.36
2023-03-05T07:12:04.386Z,3.80
2023-03-05T07:14:32.539Z,3.98
2023-03-05T07:17:00.672Z,4.19
2023-03-05T07:19:28.968Z,4.46
2023-03-05T07:21:57.099Z,4.68
2023-03-05T07:24:29.849Z,5.03
2023-03-05T07:26:58.429Z,5.48
2023-03-05T07:29:29.199Z,6.16
2023-03-05T07:31:57.492Z,6.75
2023-03-05T07:34:27.208Z,7.10
2023-03-05T07:36:55.646Z,6.74
2023-03-05T07:39:23.817Z,7.02
2023-03-05T07:41:52.694Z,8.37
2023-03-05T07:44:30.276Z,8.77
2023-03-05T07:46:58.433Z,9.49
2023-03-05T07:49:26.547Z,9.76
2023-03-05T07:51:54.633Z,9.97
2023-03-05T07:54:22.725Z,10.17
2023-03-05T07:56:50.832Z,10.43
2023-03-05T07:59:19.000Z,10.76
2023-03-05T08:01:48.541Z,10.74
2023-03-05T08:04:17.162Z,11.42
2023-03-05T08:06:47.003Z,11.89
2023-03-05T08:09:15.187Z,11.89
2023-03-05T08:11:43.584Z,11.61
2023-03-05T08:14:13.450Z,12.18
2023-03-05T08:16:41.708Z,12.50
2023-03-05T08:19:11.992Z,11.86
2023-03-05T08:21:40.144Z,11.72
2023-03-05T08:24:10.125Z,11.49
2023-03-05T08:26:39.615Z,11.67
2023-03-05T08:29:09.401Z,12.76
2023-03-05T08:31:38.845Z,13.20
2023-03-05T08:34:07.548Z,13.42
2023-03-05T08:36:37.178Z,13.33
2023-03-05T08:39:06.826Z,13.44
2023-03-05T08:41:35.117Z,13.69
2023-03-05T08:44:03.960Z,12.66
2023-03-05T08:46:32.149Z,13.92
2023-03-05T08:49:00.542Z,15.76
2023-03-05T08:51:29.169Z,16.48
2023-03-05T08:53:59.998Z,15.44
2023-03-05T08:56:31.231Z,13.94
2023-03-05T08:58:59.422Z,14.01
2023-03-05T09:01:27.958Z,13.93
2023-03-05T09:03:56.256Z,15.27
2023-03-05T09:06:27.796Z,14.36
2023-03-05T09:08:56.090Z,15.18
2023-03-05T09:11:25.673Z,15.70
2023-03-05T09:13:53.907Z,14.92
2023-03-05T09:16:22.249Z,14.12
2023-03-05T09:18:50.452Z,13.94
2023-03-05T09:21:19.279Z,13.89
2023-03-05T09:23:48.235Z,13.74
2023-03-05T09:26:19.386Z,13.76
2023-03-05T09:28:49.713Z,13.80
2023-03-05T09:31:18.821Z,14.52
2023-03-05T09:33:48.776Z,15.36
2023-03-05T09:36:22.917Z,16.42
2023-03-05T09:38:53.726Z,16.98
2023-03-05T09:41:32.011Z,17.11
2023-03-05T09:44:14.180Z,19.12
2023-03-05T09:46:53.579Z,19.52
2023-03-05T09:49:32.119Z,17.70
2023-03-05T09:52:07.463Z,16.15
2023-03-05T09:54:41.609Z,16.01
2023-03-05T09:57:18.659Z,15.34
2023-03-05T09:59:51.634Z,15.91
2023-03-05T10:02:23.957Z,16.27
2023-03-05T10:04:59.139Z,16.69
2023-03-05T10:07:31.558Z,16.36
2023-03-05T10:10:01.910Z,17.85
2023-03-05T10:12:42.807Z,18.74
2023-03-05T10:15:16.370Z,17.94
2023-03-05T10:18:10.212Z,18.27
2023-03-05T10:20:48.172Z,17.84
2023-03-05T10:23:27.588Z,18.97
2023-03-05T10:26:05.446Z,19.10
2023-03-05T10:28:44.719Z,18.62
2023-03-05T10:31:33.851Z,19.38
2023-03-05T10:34:24.015Z,19.99
2023-03-05T10:37:07.420Z,21.30
2023-03-05T10:39:53.194Z,20.35
2023-03-05T10:42:31.280Z,20.62
2023-03-05T10:45:01.397Z,21.48
2023-03-05T10:47:38.991Z,21.59
2023-03-05T10:50:17.769Z,21.04
2023-03-05T10:52:51.765Z,20.42
2023-03-05T10:55:23.723Z,19.57
2023-03-05T10:57:53.384Z,18.71
2023-03-05T11:00:23.943Z,18.82
2023-03-05T11:03:00.105Z,20.20
2023-03-05T11:05:42.608Z,20.70
2023-03-05T11:08:33.016Z,20.69
2023-03-05T11:11:16.662Z,21.67
2023-03-05T11:13:58.433Z,22.19
2023-03-05T11:16:28.601Z,20.30
2023-03-05T11:19:22.477Z,20.27
2023-03-05T11:22:11.251Z,21.68
2023-03-05T11:24:41.568Z,21.54
2023-03-05T11:27:26.872Z,19.56
2023-03-05T11:29:56.206Z,19.59
2023-03-05T11:32:26.292Z,19.35
2023-03-05T11:34:58.427Z,20.71
2023-03-05T11:37:31.516Z,20.70
2023-03-05T11:40:23.721Z,21.36
2023-03-05T11:42:57.174Z,19.11
2023-03-05T11:45:27.853Z,17.34
2023-03-05T11:48:00.275Z,16.44
2023-03-05T11:50:32.684Z,16.85
2023-03-05T11:53:07.441Z,19.42
2023-03-05T11:55:41.582Z,20.65
2023-03-05T11:58:31.177Z,21.19
2023-03-05T12:01:01.184Z,20.04
2023-03-05T12:03:34.749Z,20.32
2023-03-05T12:06:12.172Z,22.50
2023-03-05T12:08:46.257Z,22.49
2023-03-05T12:11:20.480Z,22.91
2023-03-05T12:13:53.810Z,23.37
2023-03-05T12:16:29.923Z,22.20
2023-03-05T12:19:10.773Z,21.68
2023-03-05T12:21:43.338Z,22.54
2023-03-05T12:24:36.726Z,22.36
2023-03-05T12:27:11.732Z,21.05
2023-03-05T12:29:43.125Z,20.66
2023-03-05T12:33:03.863Z,19.91
2023-03-05T12:35:37.890Z,21.30
2023-03-05T12:38:26.871Z,19.55
2023-03-05T12:41:40.880Z,19.42
2023-03-05T12:44:24.228Z,19.66
2023-03-05T12:47:17.915Z,19.66
2023-03-05T12:49:49.570Z,19.40
2023-03-05T12:52:32.034Z,19.40
2023-03-05T12:55:21.559Z,18.97
2023-03-05T12:57:56.017Z,18.34
2023-03-05T13:00:27.520Z,17.56
2023-03-05T13:03:00.883Z,17.49
2023-03-05T13:05:33.887Z,18.89
2023-03-05T13:08:16.152Z,20.19
2023-03-05T13:10:55.267Z,19.97
2023-03-05T13:13:27.262Z,20.35
2023-03-05T13:15:56.530Z,18.70
2023-03-05T13:18:28.131Z,18.74
2023-03-05T13:21:07.911Z,19.55
2023-03-05T13:23:37.332Z,19.47
2023-03-05T13:26:15.742Z,19.07
2023-03-05T13:28:46.011Z,17.21
2023-03-05T13:31:18.516Z,15.49
2023-03-05T13:33:56.427Z,13.97
2023-03-05T13:36:28.395Z,13.12
2023-03-05T13:38:57.740Z,13.50
2023-03-05T13:41:29.937Z,15.48
2023-03-05T13:44:01.012Z,17.02
2023-03-05T13:46:33.091Z,18.36
2023-03-05T13:49:23.751Z,17.77
2023-03-05T13:51:55.940Z,18.33
2023-03-05T13:54:29.058Z,18.11
2023-03-05T13:57:02.267Z,18.05
2023-03-05T13:59:34.459Z,18.69
2023-03-05T14:02:18.835Z,18.34
2023-03-05T14:04:49.673Z,19.04
2023-03-05T14:07:32.131Z,18.30
2023-03-05T14:10:03.805Z,18.56
2023-03-05T14:12:37.218Z,17.81
2023-03-05T14:15:20.941Z,18.92
2023-03-05T14:17:49.817Z,18.06
2023-03-05T14:20:29.144Z,18.42
2023-03-05T14:23:00.729Z,17.83
2023-03-05T14:25:36.852Z,18.44
2023-03-05T14:28:22.365Z,18.72
2023-03-05T14:30:54.665Z,18.05
2023-03-05T14:33:26.070Z,17.43
2023-03-05T14:35:55.664Z,17.55
2023-03-05T14:38:28.377Z,17.40
2023-03-05T14:40:58.054Z,15.65
2023-03-05T14:43:30.234Z,15.49
2023-03-05T14:45:59.669Z,15.41
2023-03-05T14:48:29.717Z,15.10
2023-03-05T14:51:01.358Z,15.99
2023-03-05T14:53:37.363Z,16.15
2023-03-05T14:56:18.104Z,15.81
2023-03-05T14:58:49.152Z,16.05
2023-03-05T15:01:20.277Z,15.88
2023-03-05T15:03:50.318Z,15.98
2023-03-05T15:06:26.500Z,14.98
2023-03-05T15:08:56.158Z,14.21
2023-03-05T15:11:28.638Z,13.69
2023-03-05T15:13:59.517Z,12.93
2023-03-05T15:16:30.479Z,12.19
2023-03-05T15:19:00.873Z,11.66
2023-03-05T15:21:30.166Z,11.20
2023-03-05T15:23:59.819Z,11.06
2023-03-05T15:26:29.751Z,10.93
2023-03-05T15:29:00.581Z,11.00
2023-03-05T15:31:31.682Z,10.62
2023-03-05T15:34:00.788Z,10.33
2023-03-05T15:36:31.192Z,10.17
2023-03-05T15:39:03.285Z,9.76
2023-03-05T15:41:32.878Z,9.54
2023-03-05T15:44:04.634Z,9.45
2023-03-05T15:46:36.247Z,9.18
2023-03-05T15:49:06.418Z,9.02
2023-03-05T15:51:34.954Z,8.97
2023-03-05T15:54:04.943Z,8.88
2023-03-05T15:56:35.125Z,8.81
2023-03-05T15:59:06.695Z,8.78
2023-03-05T16:01:36.148Z,8.69
2023-03-05T16:04:05.659Z,8.64
2023-03-05T16:06:39.081Z,8.41
2023-03-05T16:09:13.258Z,8.35
2023-03-05T16:11:48.707Z,8.24
2023-03-05T16:14:24.277Z,8.19
2023-03-05T16:16:57.647Z,8.08
2023-03-05T16:19:30.394Z,7.95
2023-03-05T16:22:00.228Z,7.84
2023-03-05T16:24:34.697Z,7.70
2023-03-05T16:27:05.394Z,7.68
2023-03-05T16:29:39.382Z,7.62
2023-03-05T16:32:09.472Z,7.53
2023-03-05T16:34:40.687Z,7.51
2023-03-05T16:37:10.873Z,7.53
2023-03-05T16:39:41.510Z,7.43
2023-03-05T16:42:11.574Z,7.38
2023-03-05T16:44:43.486Z,7.31
2023-03-05T16:47:14.163Z,7.29
2023-03-05T16:49:44.183Z,7.23
2023-03-05T16:52:19.167Z,7.17
2023-03-05T16:54:49.703Z,7.12
2023-03-05T16:57:20.037Z,7.08
2023-03-05T16:59:51.961Z,7.02
2023-03-05T17:02:22.492Z,6.90
2023-03-05T17:04:53.272Z,6.86
2023-03-05T17:07:23.447Z,6.74
2023-03-05T17:09:53.825Z,6.61
2023-03-05T17:12:24.005Z,6.50
2023-03-05T17:14:55.296Z,6.34
2023-03-05T17:17:25.136Z,6.22
2023-03-05T17:19:54.811Z,6.13
2023-03-05T17:22:25.750Z,6.08
2023-03-05T17:24:55.095Z,5.96
2023-03-05T17:27:27.248Z,5.86
2023-03-05T17:30:00.563Z,5.79
2023-03-05T17:32:30.802Z,5.68
2023-03-05T17:35:10.993Z,5.58
2023-03-05T17:37:40.728Z,5.44
2023-03-05T17:40:12.933Z,5.31
2023-03-05T17:42:42.741Z,5.16
2023-03-05T17:45:15.431Z,5.09
2023-03-05T17:47:47.911Z,4.91
2023-03-05T17:50:21.449Z,4.84
2023-03-05T17:52:53.782Z,4.74
2023-03-05T17:55:26.451Z,4.59
2023-03-05T17:57:58.717Z,4.51
2023-03-05T18:00:32.804Z,4.47
2023-03-05T18:03:02.739Z,4.37
2023-03-05T18:05:36.883Z,4.34
2023-03-05T18:08:07.396Z,4.22
2023-03-05T18:10:37.638Z,4.16
2023-03-05T18:13:07.750Z,4.10
2023-03-05T18:15:48.015Z,4.04
2023-03-05T18:18:20.032Z,3.95
2023-03-05T18:20:50.797Z,3.88
2023-03-05T18:23:20.975Z,3.81
2023-03-05T18:25:51.224Z,3.70
2023-03-05T18:28:21.760Z,3.65
2023-03-05T18:30:53.595Z,3.61
2023-03-05T18:33:25.935Z,3.54
2023-03-05T18:35:55.918Z,3.54
2023-03-05T18:38:28.203Z,3.56
2023-03-05T18:40:59.607Z,3.46
2023-03-05T18:43:30.417Z,3.43
2023-03-05T18:46:05.572Z,3.40
2023-03-05T18:48:37.109Z,3.38
2023-03-05T18:51:07.250Z,3.31
2023-03-05T18:53:43.598Z,3.31
2023-03-05T18:56:14.683Z,3.27
2023-03-05T18:58:45.560Z,3.24
2023-03-05T19:01:21.400Z,3.16
2023-03-05T19:03:54.351Z,3.08
2023-03-05T19:06:24.723Z,3.04
2023-03-05T19:08:59.479Z,2.98
2023-03-05T19:11:29.626Z,3.00
2023-03-05T19:13:59.946Z,2.94
2023-03-05T19:16:38.878Z,2.89
2023-03-05T19:19:15.999Z,2.86
2023-03-05T19:21:49.323Z,2.84
2023-03-05T19:24:20.391Z,2.80
2023-03-05T19:26:55.973Z,2.74
2023-03-05T19:29:26.821Z,2.71
2023-03-05T19:31:58.973Z,2.73
2023-03-05T19:34:29.084Z,2.73
2023-03-05T19:36:59.989Z,2.69
2023-03-05T19:39:30.482Z,2.72
2023-03-05T19:42:01.154Z,2.71
2023-03-05T19:44:34.284Z,2.83
2023-03-05T19:47:05.299Z,3.07
2023-03-05T19:49:36.775Z,3.05
2023-03-05T19:52:07.234Z,3.08
2023-03-05T19:54:40.943Z,3.07
2023-03-05T19:57:10.634Z,3.06
2023-03-05T19:59:41.208Z,3.09
2023-03-05T20:02:19.562Z,3.20
2023-03-05T20:04:52.109Z,3.24
2023-03-05T20:07:23.428Z,3.32
2023-03-05T20:09:55.875Z,3.35
2023-03-05T20:12:26.856Z,3.36
2023-03-05T20:14:56.888Z,3.34
2023-03-05T20:17:28.272Z,3.38
2023-03-05T20:20:00.259Z,3.47
2023-03-05T20:22:30.646Z,3.47
2023-03-05T20:25:02.021Z,3.48
2023-03-05T20:27:31.623Z,3.47
2023-03-05T20:30:01.628Z,3.50
2023-03-05T20:32:33.868Z,3.60
2023-03-05T20:35:06.870Z,3.68
2023-03-05T20:37:40.659Z,3.74
2023-03-05T20:40:11.701Z,3.77
2023-03-05T20:42:42.294Z,3.82
2023-03-05T20:45:12.649Z,3.87
2023-03-05T20:47:46.667Z,3.98
2023-03-05T20:50:16.888Z,4.06
2023-03-05T20:52:47.185Z,4.11
2023-03-05T20:55:17.358Z,4.09
2023-03-05T20:57:46.848Z,4.20
2023-03-05T21:00:24.110Z,4.19
2023-03-05T21:02:56.624Z,4.21
2023-03-05T21:05:28.226Z,4.22
2023-03-05T21:07:57.753Z,4.27
2023-03-05T21:10:30.067Z,4.34
2023-03-05T21:13:01.004Z,4.40
2023-03-05T21:15:33.632Z,4.37
2023-03-05T21:18:04.501Z,4.44
2023-03-05T21:20:34.279Z,4.45
2023-03-05T21:23:04.263Z,4.41
2023-03-05T21:25:35.994Z,4.47
2023-03-05T21:28:08.797Z,4.47
2023-03-05T21:30:40.275Z,4.50
2023-03-05T21:33:12.699Z,4.48
2023-03-05T21:35:41.748Z,4.50
2023-03-05T21:38:11.735Z,4.44
2023-03-05T21:40:43.999Z,4.46
2023-03-05T21:43:14.106Z,4.45
2023-03-05T21:45:43.220Z,4.48
2023-03-05T21:48:13.241Z,4.50
2023-03-05T21:50:43.037Z,4.45
2023-03-05T21:53:12.112Z,4.48
2023-03-05T21:55:46.559Z,4.50
2023-03-05T21:58:15.021Z,4.51
2023-03-05T22:00:43.171Z,4.49
2023-03-05T22:03:12.726Z,4.61
2023-03-05T22:05:43.407Z,4.54
2023-03-05T22:08:11.520Z,4.43
2023-03-05T22:10:41.998Z,4.42
2023-03-05T22:13:13.992Z,4.42
2023-03-05T22:15:47.869Z,4.39
2023-03-05T22:18:21.401Z,4.28
2023-03-05T22:20:50.484Z,4.27
2023-03-05T22:23:22.230Z,4.29
2023-03-05T22:25:57.495Z,4.28
2023-03-05T22:28:26.532Z,4.34
2023-03-05T22:30:55.664Z,4.38
2023-03-05T22:33:25.455Z,4.43
2023-03-05T22:35:53.650Z,4.61
2023-03-05T22:38:22.487Z,4.57
2023-03-05T22:40:51.226Z,4.55
2023-03-05T22:43:19.977Z,4.53
2023-03-05T22:45:48.259Z,4.52
2023-03-05T22:48:16.730Z,4.48
2023-03-05T22:50:46.291Z,4.47
2023-03-05T22:53:14.454Z,4.57
2023-03-05T22:55:43.791Z,4.54
2023-03-05T22:58:11.893Z,4.51
2023-03-05T23:00:40.034Z,4.52
2023-03-05T23:03:08.259Z,4.51
2023-03-05T23:05:36.807Z,4.66
2023-03-05T23:08:06.860Z,4.49
2023-03-05T23:10:35.142Z,4.40
2023-03-05T23:13:03.335Z,4.42
2023-03-05T23:15:33.170Z,4.39
2023-03-05T23:18:01.446Z,4.44
2023-03-05T23:20:32.794Z,4.47
2023-03-05T23:23:01.656Z,4.39
2023-03-05T23:25:33.389Z,4.32
2023-03-05T23:28:02.597Z,4.30
2023-03-05T23:30:31.665Z,4.29
2023-03-05T23:33:04.166Z,4.30
2023-03-05T23:35:33.948Z,4.26
2023-03-05T23:38:03.087Z,4.36
2023-03-05T23:40:34.539Z,4.34
2023-03-05T23:43:02.767Z,4.18
2023-03-05T23:45:31.497Z,4.19
2023-03-05T23:47:59.912Z,4.19
2023-03-05T23:50:30.364Z,4.14
2023-03-05T23:53:01.370Z,4.11
2023-03-05T23:55:34.161Z,4.09
2023-03-05T23:58:02.445Z,4.13
